createdAt,value
2019-06-27T00:02:26.995Z,11.90
2019-06-27T00:05:02.903Z,11.70
2019-06-27T00:07:35.222Z,14.10
2019-06-27T00:10:10.149Z,14.50
2019-06-27T00:12:42.122Z,14.43
2019-06-27T00:15:24.348Z,11.20
2019-06-27T00:18:11.650Z,22.70
2019-06-27T00:21:00.730Z,10.90
2019-06-27T00:23:33.360Z,12.60
2019-06-27T00:26:07.257Z,13.27
2019-06-27T00:28:40.360Z,9.17
2019-06-27T00:31:12.472Z,8.57
2019-06-27T00:33:45.359Z,9.90
2019-06-27T00:36:18.369Z,9.20
2019-06-27T00:38:50.491Z,9.83
2019-06-27T00:41:26.106Z,8.17
2019-06-27T00:44:00.242Z,12.83
2019-06-27T00:46:33.381Z,7.83
2019-06-27T00:49:07.436Z,10.67
2019-06-27T00:51:45.233Z,8.47
2019-06-27T00:54:19.184Z,7.67
2019-06-27T00:56:51.883Z,8.60
2019-06-27T00:59:24.494Z,7.00
2019-06-27T01:01:58.483Z,10.33
2019-06-27T01:04:34.017Z,6.60
2019-06-27T01:07:06.702Z,14.40
2019-06-27T01:09:38.578Z,8.00
2019-06-27T01:12:14.071Z,9.03
2019-06-27T01:14:47.496Z,8.47
2019-06-27T01:17:21.383Z,7.40
2019-06-27T01:19:54.373Z,7.97
2019-06-27T01:22:27.352Z,8.17
2019-06-27T01:25:01.732Z,7.20
2019-06-27T01:27:46.135Z,7.70
2019-06-27T01:30:20.973Z,7.50
2019-06-27T01:32:54.592Z,8.03
2019-06-27T01:35:27.961Z,8.37
2019-06-27T01:38:00.621Z,8.87
2019-06-27T01:40:33.647Z,13.10
2019-06-27T01:43:06.804Z,10.97
2019-06-27T01:45:45.075Z,11.70
2019-06-27T01:48:18.753Z,12.60
2019-06-27T01:50:51.606Z,10.60
2019-06-27T01:53:24.719Z,16.13
2019-06-27T01:55:58.475Z,10.93
2019-06-27T01:58:30.693Z,11.13
2019-06-27T02:01:05.340Z,13.77
2019-06-27T02:03:38.956Z,11.93
2019-06-27T02:06:12.722Z,11.30
2019-06-27T02:08:47.878Z,12.53
2019-06-27T02:11:20.847Z,12.83
2019-06-27T02:13:52.094Z,12.00
2019-06-27T02:16:23.789Z,12.93
2019-06-27T02:18:59.234Z,13.40
2019-06-27T02:21:31.880Z,14.23
2019-06-27T02:24:05.241Z,14.13
2019-06-27T02:26:38.065Z,15.13
2019-06-27T02:29:09.963Z,13.30
2019-06-27T02:31:42.666Z,19.03
2019-06-27T02:34:15.914Z,15.57
2019-06-27T02:36:48.969Z,14.43
2019-06-27T02:39:21.877Z,13.70
2019-06-27T02:41:54.855Z,20.00
2019-06-27T02:44:27.885Z,18.30
2019-06-27T02:47:00.830Z,18.03
2019-06-27T02:49:32.912Z,12.97
2019-06-27T02:52:06.805Z,19.03
2019-06-27T02:54:38.868Z,11.07
2019-06-27T02:57:14.604Z,11.33
2019-06-27T02:59:47.932Z,11.23
2019-06-27T03:02:19.969Z,10.70
2019-06-27T03:04:52.243Z,10.77
2019-06-27T03:07:25.065Z,12.30
2019-06-27T03:09:58.358Z,10.17
2019-06-27T03:12:31.993Z,13.73
2019-06-27T03:15:04.418Z,8.97
2019-06-27T03:17:50.746Z,10.30
2019-06-27T03:20:25.507Z,9.70
2019-06-27T03:22:58.994Z,10.00
2019-06-27T03:25:32.442Z,16.03
2019-06-27T03:28:03.991Z,9.67
2019-06-27T03:30:35.197Z,10.60
2019-06-27T03:33:14.029Z,21.23
2019-06-27T03:35:48.491Z,12.63
2019-06-27T03:38:26.302Z,14.60
2019-06-27T03:40:58.129Z,9.47
2019-06-27T03:43:33.206Z,9.60
2019-06-27T03:46:10.452Z,11.33
2019-06-27T03:48:44.165Z,9.50
2019-06-27T03:51:17.667Z,11.23
2019-06-27T03:53:50.820Z,10.20
2019-06-27T03:56:22.213Z,9.53
2019-06-27T03:59:11.605Z,11.20
2019-06-27T04:01:29.219Z,11.40
2019-06-27T04:04:02.307Z,10.97
2019-06-27T04:06:35.753Z,10.50
2019-06-27T04:09:07.805Z,9.80
2019-06-27T04:11:40.466Z,10.33
2019-06-27T04:14:15.690Z,13.03
2019-06-27T04:16:51.736Z,10.47
2019-06-27T04:19:24.616Z,9.93
2019-06-27T04:21:58.709Z,9.77
2019-06-27T04:24:30.620Z,11.07
2019-06-27T04:27:06.060Z,12.03
2019-06-27T04:29:41.594Z,9.57
2019-06-27T04:32:14.217Z,10.23
2019-06-27T04:34:50.478Z,9.83
2019-06-27T04:37:22.301Z,9.87
2019-06-27T04:39:55.742Z,17.67
2019-06-27T04:42:29.869Z,9.60
2019-06-27T04:45:01.573Z,12.93
2019-06-27T04:47:43.971Z,9.67
2019-06-27T04:50:20.770Z,10.10
2019-06-27T04:52:52.002Z,11.90
2019-06-27T04:55:27.796Z,14.17
2019-06-27T04:58:03.004Z,20.63
2019-06-27T05:00:35.467Z,11.83
2019-06-27T05:03:09.520Z,10.50
2019-06-27T05:05:44.879Z,12.03
2019-06-27T05:08:17.378Z,19.23
2019-06-27T05:10:49.990Z,13.80
2019-06-27T05:13:21.698Z,10.67
2019-06-27T05:15:55.547Z,14.37
2019-06-27T05:18:29.930Z,10.50
2019-06-27T05:21:03.726Z,11.10
2019-06-27T05:23:41.409Z,12.70
2019-06-27T05:26:15.686Z,15.60
2019-06-27T05:28:49.871Z,10.97
2019-06-27T05:31:23.403Z,14.73
2019-06-27T05:33:58.017Z,16.20
2019-06-27T05:36:31.750Z,18.00
2019-06-27T05:39:07.994Z,14.20
2019-06-27T05:41:41.726Z,17.67
2019-06-27T05:44:15.768Z,19.00
2019-06-27T05:46:47.689Z,16.17
2019-06-27T05:49:21.131Z,15.47
2019-06-27T05:51:52.334Z,17.60
2019-06-27T05:54:25.220Z,14.93
2019-06-27T05:56:57.794Z,12.03
2019-06-27T05:59:30.726Z,12.83
2019-06-27T06:02:04.061Z,12.50
2019-06-27T06:04:36.836Z,13.93
2019-06-27T06:07:09.974Z,17.03
2019-06-27T06:09:42.185Z,16.17
2019-06-27T06:12:17.899Z,22.13
2019-06-27T06:14:51.024Z,12.17
2019-06-27T06:17:27.714Z,11.90
2019-06-27T06:20:04.390Z,14.00
2019-06-27T06:22:37.035Z,10.63
2019-06-27T06:25:11.801Z,14.23
2019-06-27T06:27:50.083Z,18.03
2019-06-27T06:30:44.589Z,25.63
2019-06-27T06:33:11.970Z,15.70
2019-06-27T06:35:49.223Z,12.77
2019-06-27T06:38:24.308Z,26.03
2019-06-27T06:40:59.607Z,12.40
2019-06-27T06:43:33.420Z,12.87
2019-06-27T06:46:08.265Z,24.93
2019-06-27T06:48:55.148Z,11.83
2019-06-27T06:51:29.790Z,15.53
2019-06-27T06:54:01.081Z,16.10
2019-06-27T06:56:34.280Z,15.10
2019-06-27T06:59:07.276Z,12.93
2019-06-27T07:01:41.448Z,13.70
2019-06-27T07:04:13.211Z,13.97
2019-06-27T07:06:47.175Z,11.77
2019-06-27T07:09:21.052Z,16.70
2019-06-27T07:11:53.689Z,25.63
2019-06-27T07:14:28.524Z,14.63
2019-06-27T07:17:01.127Z,14.10
2019-06-27T07:19:34.457Z,15.40
2019-06-27T07:22:07.671Z,15.37
2019-06-27T07:24:43.033Z,24.93
2019-06-27T07:27:15.521Z,14.03
2019-06-27T07:29:48.841Z,16.00
2019-06-27T07:32:22.689Z,26.60
2019-06-27T07:34:55.844Z,12.80
2019-06-27T07:37:30.794Z,19.13
2019-06-27T07:40:15.259Z,19.03
2019-06-27T07:42:49.122Z,19.77
2019-06-27T07:45:22.360Z,16.53
2019-06-27T07:47:55.518Z,15.47
2019-06-27T07:50:49.868Z,15.73
2019-06-27T07:53:22.599Z,18.90
2019-06-27T07:55:56.870Z,27.07
2019-06-27T07:58:28.761Z,19.07
2019-06-27T08:01:02.037Z,19.30
2019-06-27T08:03:34.692Z,14.50
2019-06-27T08:06:07.348Z,22.33
2019-06-27T08:08:40.686Z,15.33
2019-06-27T08:11:13.720Z,19.80
2019-06-27T08:13:47.789Z,16.90
2019-06-27T08:16:19.287Z,29.50
2019-06-27T08:18:52.594Z,15.13
2019-06-27T08:21:23.938Z,20.03
2019-06-27T08:23:57.978Z,14.97
2019-06-27T08:26:29.184Z,17.47
2019-06-27T08:29:02.855Z,18.03
2019-06-27T08:31:50.477Z,28.83
2019-06-27T08:34:11.198Z,18.60
2019-06-27T08:36:43.291Z,16.67
2019-06-27T08:39:18.543Z,16.67
2019-06-27T08:41:50.090Z,18.00
2019-06-27T08:44:22.135Z,21.60
2019-06-27T08:46:57.331Z,18.17
2019-06-27T08:49:28.727Z,14.47
2019-06-27T08:52:01.698Z,20.40
2019-06-27T08:54:34.784Z,19.23
2019-06-27T08:57:07.685Z,17.70
2019-06-27T08:59:40.347Z,17.50
2019-06-27T09:02:11.707Z,22.23
2019-06-27T09:04:46.910Z,18.40
2019-06-27T09:07:21.808Z,21.13
2019-06-27T09:09:57.101Z,31.13
2019-06-27T09:12:30.783Z,18.60
2019-06-27T09:15:17.164Z,15.53
2019-06-27T09:17:52.080Z,14.40
2019-06-27T09:20:25.149Z,16.10
2019-06-27T09:22:58.009Z,15.20
2019-06-27T09:25:30.805Z,16.30
2019-06-27T09:28:02.001Z,48.60
2019-06-27T09:30:35.089Z,22.30
2019-06-27T09:33:07.948Z,24.70
2019-06-27T09:35:42.681Z,17.10
2019-06-27T09:38:13.971Z,23.03
2019-06-27T09:40:46.980Z,14.20
2019-06-27T09:43:19.059Z,16.57
2019-06-27T09:45:52.052Z,15.67
2019-06-27T09:48:25.713Z,14.50
2019-06-27T09:50:59.149Z,16.90
2019-06-27T09:53:31.226Z,24.33
2019-06-27T09:56:13.036Z,19.63
2019-06-27T09:58:48.058Z,21.93
2019-06-27T10:01:23.213Z,13.20
2019-06-27T10:03:56.212Z,15.00
2019-06-27T10:06:30.474Z,15.10
2019-06-27T10:09:05.485Z,19.00
2019-06-27T10:11:41.128Z,18.20
2019-06-27T10:14:15.261Z,17.00
2019-06-27T10:16:50.464Z,15.83
2019-06-27T10:19:23.392Z,13.33
2019-06-27T10:21:55.292Z,19.37
2019-06-27T10:24:29.409Z,19.53
2019-06-27T10:27:01.288Z,12.50
2019-06-27T10:29:34.241Z,13.30
2019-06-27T10:32:06.935Z,17.77
2019-06-27T10:34:39.377Z,15.80
2019-06-27T10:37:13.707Z,20.40
2019-06-27T10:39:45.322Z,12.37
2019-06-27T10:42:21.431Z,12.60
2019-06-27T10:44:52.787Z,13.77
2019-06-27T10:47:25.553Z,13.50
2019-06-27T10:50:00.059Z,14.03
2019-06-27T10:52:31.271Z,13.10
2019-06-27T10:55:17.604Z,13.60
2019-06-27T10:57:51.667Z,18.90
2019-06-27T11:00:25.918Z,15.63
2019-06-27T11:03:14.379Z,12.37
2019-06-27T11:05:34.430Z,13.33
2019-06-27T11:08:08.253Z,12.40
2019-06-27T11:10:40.666Z,13.40
2019-06-27T11:13:13.561Z,16.20
2019-06-27T11:15:49.311Z,16.23
2019-06-27T11:18:21.695Z,14.70
2019-06-27T11:20:53.075Z,16.63
2019-06-27T11:23:24.507Z,15.30
2019-06-27T11:25:58.774Z,12.00
2019-06-27T11:28:32.403Z,12.87
2019-06-27T11:31:06.929Z,14.43
2019-06-27T11:33:40.451Z,13.53
2019-06-27T11:36:14.533Z,14.33
2019-06-27T11:38:49.567Z,19.10
2019-06-27T11:41:23.416Z,18.13
2019-06-27T11:43:57.466Z,13.53
2019-06-27T11:46:34.483Z,22.33
2019-06-27T11:49:07.906Z,15.10
2019-06-27T11:51:45.685Z,21.77
2019-06-27T11:54:20.503Z,11.63
2019-06-27T11:56:52.805Z,22.90
2019-06-27T11:59:28.744Z,12.50
2019-06-27T12:02:01.780Z,12.67
2019-06-27T12:04:33.861Z,12.47
2019-06-27T12:07:07.931Z,13.47
2019-06-27T12:09:39.802Z,15.50
2019-06-27T12:12:15.497Z,15.50
2019-06-27T12:14:49.773Z,19.93
2019-06-27T12:17:26.980Z,14.77
2019-06-27T12:20:00.893Z,19.27
2019-06-27T12:22:32.103Z,17.27
2019-06-27T12:25:17.244Z,20.50
2019-06-27T12:27:50.699Z,16.13
2019-06-27T12:30:21.957Z,17.67
2019-06-27T12:32:55.873Z,14.57
2019-06-27T12:35:28.448Z,19.83
2019-06-27T12:38:03.681Z,19.87
2019-06-27T12:40:38.083Z,16.30
2019-06-27T12:43:14.316Z,23.87
2019-06-27T12:45:45.758Z,14.83
2019-06-27T12:48:17.964Z,18.73
2019-06-27T12:50:50.866Z,16.17
2019-06-27T12:53:23.015Z,21.00
2019-06-27T12:55:56.040Z,17.57
2019-06-27T12:58:31.835Z,13.43
2019-06-27T13:01:05.052Z,18.23
2019-06-27T13:03:37.864Z,21.00
2019-06-27T13:06:11.045Z,21.20
2019-06-27T13:08:45.939Z,13.80
2019-06-27T13:11:18.017Z,14.53
2019-06-27T13:13:50.023Z,18.60
2019-06-27T13:16:23.334Z,14.97
2019-06-27T13:18:56.823Z,25.20
2019-06-27T13:21:29.130Z,23.43
2019-06-27T13:24:02.003Z,14.40
2019-06-27T13:26:36.116Z,25.73
2019-06-27T13:29:10.632Z,20.33
2019-06-27T13:31:44.016Z,19.10
2019-06-27T13:34:17.349Z,15.53
2019-06-27T13:36:50.275Z,23.10
2019-06-27T13:39:23.272Z,23.60
2019-06-27T13:41:56.255Z,14.67
2019-06-27T13:44:30.874Z,17.53
2019-06-27T13:47:09.474Z,16.80
2019-06-27T13:49:45.406Z,13.87
2019-06-27T13:52:19.230Z,16.90
2019-06-27T13:54:52.488Z,17.80
2019-06-27T13:57:26.473Z,25.67
2019-06-27T14:00:01.462Z,13.83
2019-06-27T14:02:37.985Z,19.27
2019-06-27T14:05:13.258Z,12.93
2019-06-27T14:08:03.465Z,13.40
2019-06-27T14:10:36.296Z,21.07
2019-06-27T14:13:09.671Z,17.00
2019-06-27T14:15:41.624Z,23.63
2019-06-27T14:18:19.349Z,22.07
2019-06-27T14:20:51.499Z,23.47
2019-06-27T14:23:27.215Z,21.20
2019-06-27T14:25:58.463Z,18.07
2019-06-27T14:28:31.351Z,12.80
2019-06-27T14:31:04.529Z,12.33
2019-06-27T14:33:42.110Z,11.43
2019-06-27T14:36:13.554Z,12.53
2019-06-27T14:38:49.818Z,12.50
2019-06-27T14:41:22.584Z,14.67
2019-06-27T14:43:55.564Z,15.93
2019-06-27T14:46:29.695Z,12.80
2019-06-27T14:49:17.925Z,19.43
2019-06-27T14:51:52.199Z,18.33
2019-06-27T14:54:24.148Z,20.63
2019-06-27T14:56:55.578Z,10.67
2019-06-27T14:59:27.584Z,12.77
2019-06-27T15:02:01.562Z,13.50
2019-06-27T15:04:33.612Z,14.43
2019-06-27T15:07:09.389Z,14.77
2019-06-27T15:09:40.793Z,10.83
2019-06-27T15:12:14.689Z,15.97
2019-06-27T15:14:50.491Z,15.53
2019-06-27T15:17:23.275Z,11.80
2019-06-27T15:19:59.369Z,16.90
2019-06-27T15:22:35.295Z,15.13
2019-06-27T15:25:17.792Z,14.23
2019-06-27T15:27:49.786Z,12.90
2019-06-27T15:30:31.091Z,18.13
2019-06-27T15:33:10.575Z,11.87
2019-06-27T15:35:52.831Z,19.13
2019-06-27T15:38:20.078Z,14.60
2019-06-27T15:40:55.304Z,10.33
2019-06-27T15:43:26.873Z,15.90
2019-06-27T15:45:58.873Z,30.10
2019-06-27T15:48:46.915Z,11.00
2019-06-27T15:51:19.906Z,11.70
2019-06-27T15:53:55.220Z,9.20
2019-06-27T15:56:28.990Z,14.47
2019-06-27T15:59:04.014Z,12.30
2019-06-27T16:01:39.022Z,13.90
2019-06-27T16:04:24.455Z,9.20
2019-06-27T16:06:50.304Z,9.23
2019-06-27T16:09:23.155Z,7.40
2019-06-27T16:11:56.051Z,7.53
2019-06-27T16:14:29.047Z,7.40
2019-06-27T16:17:02.094Z,7.87
2019-06-27T16:19:34.110Z,7.17
2019-06-27T16:22:09.732Z,7.80
2019-06-27T16:24:42.820Z,17.80
2019-06-27T16:27:17.046Z,6.30
2019-06-27T16:29:49.154Z,6.40
2019-06-27T16:32:23.082Z,7.23
2019-06-27T16:34:57.099Z,16.13
2019-06-27T16:37:32.256Z,6.00
2019-06-27T16:40:21.851Z,7.07
2019-06-27T16:42:53.100Z,4.00
2019-06-27T16:45:33.758Z,3.00
2019-06-27T16:48:04.993Z,4.60
2019-06-27T16:50:38.260Z,1.80
2019-06-27T16:53:11.183Z,2.30
2019-06-27T16:55:44.169Z,3.80
2019-06-27T16:58:15.667Z,6.60
2019-06-27T17:00:52.517Z,3.50
2019-06-27T17:03:26.661Z,2.27
2019-06-27T17:05:59.730Z,4.70
2019-06-27T17:08:32.231Z,2.23
2019-06-27T17:11:05.373Z,2.13
2019-06-27T17:13:39.956Z,1.90
2019-06-27T17:16:13.295Z,3.17
2019-06-27T17:18:46.279Z,4.43
2019-06-27T17:21:18.361Z,2.00
2019-06-27T17:23:51.348Z,2.40
2019-06-27T17:26:25.015Z,4.53
2019-06-27T17:28:58.117Z,7.40
2019-06-27T17:31:32.398Z,9.87
2019-06-27T17:34:06.425Z,4.00
2019-06-27T17:36:40.179Z,5.00
2019-06-27T17:39:15.841Z,3.33
2019-06-27T17:41:51.214Z,3.57
2019-06-27T17:44:26.658Z,3.73
2019-06-27T17:46:59.631Z,1.50
2019-06-27T17:49:33.342Z,4.40
2019-06-27T17:52:06.354Z,7.97
2019-06-27T17:54:39.504Z,2.77
2019-06-27T17:57:11.944Z,3.50
2019-06-27T17:59:44.514Z,2.90
2019-06-27T18:02:19.217Z,14.20
2019-06-27T18:04:51.505Z,3.20
2019-06-27T18:07:24.617Z,6.10
2019-06-27T18:09:56.591Z,7.20
2019-06-27T18:12:29.941Z,3.83
2019-06-27T18:15:01.575Z,1.43
2019-06-27T18:17:45.169Z,2.83
2019-06-27T18:20:19.184Z,8.40
2019-06-27T18:22:51.246Z,4.73
2019-06-27T18:25:23.692Z,9.43
2019-06-27T18:27:57.706Z,4.73
2019-06-27T18:30:32.700Z,4.33
2019-06-27T18:33:04.519Z,8.30
2019-06-27T18:35:38.561Z,3.00
2019-06-27T18:38:11.629Z,1.90
2019-06-27T18:40:47.764Z,1.37
2019-06-27T18:43:34.376Z,5.90
2019-06-27T18:46:16.984Z,1.40
2019-06-27T18:48:56.073Z,3.10
2019-06-27T18:51:29.876Z,1.30
2019-06-27T18:54:02.744Z,1.10
2019-06-27T18:56:44.658Z,8.30
2019-06-27T18:59:17.995Z,3.17
2019-06-27T19:01:53.011Z,5.23
2019-06-27T19:04:35.803Z,1.53
2019-06-27T19:07:08.967Z,2.80
2019-06-27T19:09:42.015Z,4.00
2019-06-27T19:12:19.118Z,4.53
2019-06-27T19:14:50.997Z,2.00
2019-06-27T19:17:26.713Z,3.47
2019-06-27T19:20:04.501Z,1.20
2019-06-27T19:23:04.981Z,1.40
2019-06-27T19:25:39.217Z,4.50
2019-06-27T19:28:11.004Z,2.03
2019-06-27T19:30:44.974Z,1.93
2019-06-27T19:33:16.848Z,8.73
2019-06-27T19:35:50.989Z,3.43
2019-06-27T19:38:24.111Z,1.80
2019-06-27T19:40:59.996Z,1.63
2019-06-27T19:43:31.512Z,6.37
2019-06-27T19:46:05.393Z,4.50
2019-06-27T19:48:39.894Z,2.80
2019-06-27T19:51:11.984Z,1.90
2019-06-27T19:53:48.041Z,2.80
2019-06-27T19:56:21.826Z,2.03
2019-06-27T19:58:54.653Z,1.83
2019-06-27T20:01:26.187Z,2.20
2019-06-27T20:04:01.828Z,1.77
2019-06-27T20:06:33.171Z,5.07
2019-06-27T20:09:06.408Z,2.00
2019-06-27T20:11:41.296Z,2.87
2019-06-27T20:14:14.222Z,6.43
2019-06-27T20:16:47.151Z,8.13
2019-06-27T20:19:20.178Z,4.50
2019-06-27T20:21:52.216Z,6.67
2019-06-27T20:24:27.172Z,2.97
2019-06-27T20:27:00.203Z,5.00
2019-06-27T20:29:33.699Z,4.67
2019-06-27T20:32:06.640Z,4.30
2019-06-27T20:34:41.266Z,1.30
2019-06-27T20:37:15.612Z,1.60
2019-06-27T20:39:47.828Z,1.50
2019-06-27T20:42:29.147Z,1.30
2019-06-27T20:45:02.398Z,2.20
2019-06-27T20:47:50.112Z,3.13
2019-06-27T20:50:21.809Z,2.87
2019-06-27T20:52:53.233Z,7.17
2019-06-27T20:55:27.528Z,3.23
2019-06-27T20:58:02.071Z,11.13
2019-06-27T21:00:35.368Z,2.20
2019-06-27T21:03:08.304Z,1.40
2019-06-27T21:05:47.345Z,6.23
2019-06-27T21:08:20.510Z,7.40
2019-06-27T21:10:53.465Z,3.23
2019-06-27T21:13:26.369Z,1.63
2019-06-27T21:16:00.467Z,1.40
2019-06-27T21:18:33.886Z,2.60
2019-06-27T21:21:06.849Z,8.53
2019-06-27T21:23:38.128Z,12.60
2019-06-27T21:26:11.751Z,3.83
2019-06-27T21:28:45.544Z,9.50
2019-06-27T21:31:19.658Z,2.00
2019-06-27T21:33:55.553Z,5.23
2019-06-27T21:36:42.813Z,1.63
2019-06-27T21:39:15.628Z,2.80
2019-06-27T21:41:49.710Z,1.57
2019-06-27T21:44:24.874Z,1.40
2019-06-27T21:46:58.320Z,2.30
2019-06-27T21:49:31.589Z,4.07
2019-06-27T21:52:08.864Z,7.77
2019-06-27T21:54:40.600Z,2.37
2019-06-27T21:57:15.618Z,4.23
2019-06-27T21:59:51.337Z,2.80
2019-06-27T22:02:24.810Z,2.23
2019-06-27T22:04:56.857Z,12.17
2019-06-27T22:07:30.539Z,4.80
2019-06-27T22:10:04.690Z,1.53
2019-06-27T22:13:01.254Z,1.83
2019-06-27T22:15:34.420Z,2.00
2019-06-27T22:18:07.736Z,3.67
2019-06-27T22:20:43.319Z,6.83
2019-06-27T22:23:16.943Z,3.63
2019-06-27T22:25:49.960Z,4.50
2019-06-27T22:28:23.885Z,1.80
2019-06-27T22:30:56.226Z,2.20
2019-06-27T22:33:30.612Z,7.73
2019-06-27T22:36:04.803Z,2.30
2019-06-27T22:38:56.554Z,3.53
2019-06-27T22:41:47.584Z,2.20
2019-06-27T22:44:39.726Z,2.70
2019-06-27T22:47:29.797Z,2.60
2019-06-27T22:50:17.606Z,3.83
2019-06-27T22:53:07.419Z,4.70
2019-06-27T22:55:41.223Z,1.80
2019-06-27T22:58:16.671Z,12.33
2019-06-27T23:00:48.356Z,6.07
2019-06-27T23:03:21.160Z,2.17
2019-06-27T23:05:54.766Z,4.30
2019-06-27T23:08:27.307Z,2.93
2019-06-27T23:11:00.111Z,8.57
2019-06-27T23:13:33.060Z,1.70
2019-06-27T23:16:06.554Z,3.13
2019-06-27T23:18:42.558Z,2.60
2019-06-27T23:21:15.379Z,3.17
2019-06-27T23:23:49.106Z,3.43
2019-06-27T23:26:22.173Z,4.30
2019-06-27T23:28:54.044Z,7.13
2019-06-27T23:31:27.164Z,5.43
2019-06-27T23:33:59.907Z,8.30
2019-06-27T23:36:33.350Z,6.60
2019-06-27T23:39:07.070Z,8.90
2019-06-27T23:41:39.385Z,2.07
2019-06-27T23:44:12.279Z,2.80
2019-06-27T23:46:45.249Z,1.70
2019-06-27T23:49:18.444Z,4.20
2019-06-27T23:51:51.982Z,1.97
2019-06-27T23:54:26.189Z,6.47
2019-06-27T23:57:00.090Z,2.90
2019-06-27T23:59:33.432Z,7.50
